createdAt,value
2019-02-15T00:00:54.304Z,24.77
2019-02-15T00:03:24.707Z,17.98
2019-02-15T00:05:55.623Z,29.30
2019-02-15T00:08:25.980Z,22.32
2019-02-15T00:10:56.356Z,22.17
2019-02-15T00:13:26.748Z,24.47
2019-02-15T00:15:57.095Z,17.50
2019-02-15T00:18:30.238Z,22.50
2019-02-15T00:21:14.000Z,23.05
2019-02-15T00:23:44.620Z,22.87
2019-02-15T00:26:16.666Z,19.00
2019-02-15T00:28:47.487Z,21.95
2019-02-15T00:31:18.881Z,16.37
2019-02-15T00:33:50.172Z,15.25
2019-02-15T00:36:21.051Z,17.32
2019-02-15T00:38:51.428Z,16.55
2019-02-15T00:41:22.060Z,15.95
2019-02-15T00:43:52.702Z,16.35
2019-02-15T00:46:24.692Z,18.95
2019-02-15T00:48:55.116Z,15.50
2019-02-15T00:51:27.867Z,17.73
2019-02-15T00:54:00.162Z,17.27
2019-02-15T00:56:32.509Z,17.95
2019-02-15T00:59:19.675Z,18.70
2019-02-15T01:02:09.216Z,18.62
2019-02-15T01:04:56.431Z,14.45
2019-02-15T01:07:37.073Z,18.95
2019-02-15T01:10:11.792Z,15.32
2019-02-15T01:12:46.160Z,17.73
2019-02-15T01:15:16.552Z,16.05
2019-02-15T01:17:47.253Z,18.60
2019-02-15T01:20:17.874Z,23.15
2019-02-15T01:22:48.597Z,17.25
2019-02-15T01:25:18.938Z,17.45
2019-02-15T01:27:51.182Z,19.07
2019-02-15T01:30:39.874Z,15.05
2019-02-15T01:33:18.045Z,20.50
2019-02-15T01:35:50.305Z,18.45
2019-02-15T01:38:31.367Z,15.68
2019-02-15T01:41:03.627Z,14.53
2019-02-15T01:43:40.383Z,24.12
2019-02-15T01:46:12.509Z,14.47
2019-02-15T01:48:43.117Z,16.60
2019-02-15T01:51:13.781Z,16.45
2019-02-15T01:53:44.111Z,15.63
2019-02-15T01:56:14.462Z,14.25
2019-02-15T01:58:45.096Z,11.75
2019-02-15T02:01:17.184Z,14.75
2019-02-15T02:03:47.779Z,21.93
2019-02-15T02:06:18.148Z,14.13
2019-02-15T02:08:48.547Z,15.55
2019-02-15T02:11:19.083Z,17.37
2019-02-15T02:13:50.102Z,14.23
2019-02-15T02:16:21.050Z,20.40
2019-02-15T02:18:51.408Z,16.17
2019-02-15T02:21:21.736Z,17.62
2019-02-15T02:23:52.151Z,19.52
2019-02-15T02:26:22.499Z,14.10
2019-02-15T02:28:53.194Z,14.90
2019-02-15T02:31:23.521Z,16.02
2019-02-15T02:33:54.149Z,17.32
2019-02-15T02:36:48.598Z,17.48
2019-02-15T02:39:19.052Z,13.50
2019-02-15T02:41:49.678Z,19.10
2019-02-15T02:44:20.239Z,12.15
2019-02-15T02:46:50.843Z,16.80
2019-02-15T02:49:21.314Z,13.72
2019-02-15T02:51:51.993Z,17.32
2019-02-15T02:54:22.610Z,19.37
2019-02-15T02:56:53.199Z,12.30
2019-02-15T02:59:24.163Z,16.23
2019-02-15T03:01:54.917Z,12.58
2019-02-15T03:04:25.271Z,15.65
2019-02-15T03:06:55.967Z,15.25
2019-02-15T03:09:26.550Z,19.10
2019-02-15T03:11:56.930Z,13.80
2019-02-15T03:14:27.857Z,12.98
2019-02-15T03:16:58.252Z,15.83
2019-02-15T03:19:28.887Z,17.17
2019-02-15T03:21:59.254Z,14.40
2019-02-15T03:24:30.175Z,20.85
2019-02-15T03:27:00.500Z,18.92
2019-02-15T03:29:31.261Z,15.90
2019-02-15T03:32:01.846Z,15.32
2019-02-15T03:34:32.471Z,12.73
2019-02-15T03:37:10.622Z,19.27
2019-02-15T03:39:42.651Z,21.87
2019-02-15T03:42:13.389Z,15.48
2019-02-15T03:44:44.010Z,18.32
2019-02-15T03:47:16.298Z,20.30
2019-02-15T03:49:46.630Z,18.32
2019-02-15T03:52:17.544Z,19.98
2019-02-15T03:54:48.839Z,18.67
2019-02-15T03:57:19.192Z,22.07
2019-02-15T03:59:49.843Z,20.02
2019-02-15T04:02:20.522Z,21.62
2019-02-15T04:04:51.148Z,15.80
2019-02-15T04:07:21.758Z,21.30
2019-02-15T04:09:52.411Z,19.60
2019-02-15T04:12:22.814Z,16.42
2019-02-15T04:14:53.129Z,15.50
2019-02-15T04:17:23.490Z,19.77
2019-02-15T04:19:53.816Z,19.32
2019-02-15T04:22:24.466Z,18.70
2019-02-15T04:24:54.841Z,22.85
2019-02-15T04:27:25.169Z,26.15
2019-02-15T04:29:55.550Z,19.73
2019-02-15T04:32:26.162Z,19.40
2019-02-15T04:34:56.520Z,16.12
2019-02-15T04:37:27.414Z,16.40
2019-02-15T04:39:58.027Z,22.00
2019-02-15T04:42:28.752Z,15.45
2019-02-15T04:44:59.693Z,16.60
2019-02-15T04:47:30.318Z,22.35
2019-02-15T04:50:00.912Z,16.67
2019-02-15T04:52:31.615Z,15.70
2019-02-15T04:55:01.983Z,22.07
2019-02-15T04:57:32.446Z,27.90
2019-02-15T05:00:02.811Z,20.92
2019-02-15T05:02:33.534Z,18.55
2019-02-15T05:05:04.743Z,21.70
2019-02-15T05:07:35.465Z,18.23
2019-02-15T05:10:06.404Z,16.82
2019-02-15T05:12:38.189Z,15.83
2019-02-15T05:15:09.474Z,17.23
2019-02-15T05:17:40.527Z,16.87
2019-02-15T05:20:10.843Z,14.65
2019-02-15T05:22:41.192Z,14.58
2019-02-15T05:25:11.609Z,20.65
2019-02-15T05:27:42.203Z,18.05
2019-02-15T05:30:12.577Z,19.62
2019-02-15T05:32:43.199Z,17.10
2019-02-15T05:35:13.590Z,23.92
2019-02-15T05:37:44.232Z,25.40
2019-02-15T05:40:15.148Z,24.45
2019-02-15T05:42:45.472Z,21.07
2019-02-15T05:45:16.127Z,25.35
2019-02-15T05:47:46.484Z,22.25
2019-02-15T05:50:16.866Z,29.32
2019-02-15T05:52:48.051Z,16.25
2019-02-15T05:55:18.414Z,18.87
2019-02-15T05:57:49.301Z,19.57
2019-02-15T06:00:19.983Z,19.50
2019-02-15T06:02:50.861Z,19.90
2019-02-15T06:05:21.304Z,18.62
2019-02-15T06:07:51.953Z,18.55
2019-02-15T06:10:22.541Z,21.20
2019-02-15T06:12:52.893Z,20.62
2019-02-15T06:15:23.246Z,18.65
2019-02-15T06:17:53.907Z,21.80
2019-02-15T06:20:24.259Z,16.55
2019-02-15T06:22:54.748Z,23.20
2019-02-15T06:25:25.129Z,23.35
2019-02-15T06:27:55.804Z,24.82
2019-02-15T06:30:26.144Z,16.67
2019-02-15T06:32:57.052Z,23.73
2019-02-15T06:35:27.706Z,23.52
2019-02-15T06:37:58.054Z,23.25
2019-02-15T06:40:28.803Z,20.30
2019-02-15T06:42:59.124Z,19.17
2019-02-15T06:45:29.485Z,20.65
2019-02-15T06:48:00.949Z,19.05
2019-02-15T06:50:31.324Z,30.25
2019-02-15T06:53:01.660Z,21.50
2019-02-15T06:55:32.275Z,35.83
2019-02-15T06:58:02.661Z,17.10
2019-02-15T07:00:51.393Z,19.40
2019-02-15T07:03:23.651Z,22.20
2019-02-15T07:05:54.009Z,25.00
2019-02-15T07:08:24.400Z,20.50
2019-02-15T07:10:54.759Z,17.80
2019-02-15T07:13:25.123Z,18.73
2019-02-15T07:15:55.476Z,22.37
2019-02-15T07:18:26.007Z,16.87
2019-02-15T07:20:56.377Z,21.37
2019-02-15T07:23:26.772Z,23.75
2019-02-15T07:25:57.103Z,23.95
2019-02-15T07:28:27.515Z,18.55
2019-02-15T07:30:57.882Z,21.82
2019-02-15T07:33:28.803Z,19.32
2019-02-15T07:35:59.398Z,19.02
2019-02-15T07:38:30.028Z,25.50
2019-02-15T07:41:00.655Z,20.55
2019-02-15T07:43:31.342Z,21.80
2019-02-15T07:46:01.675Z,26.45
2019-02-15T07:48:32.008Z,25.72
2019-02-15T07:51:09.297Z,17.95
2019-02-15T07:53:34.411Z,18.48
2019-02-15T07:56:04.771Z,22.75
2019-02-15T07:58:35.153Z,19.87
2019-02-15T08:01:05.523Z,21.48
2019-02-15T08:03:35.879Z,17.25
2019-02-15T08:06:06.221Z,18.55
2019-02-15T08:08:36.849Z,20.00
2019-02-15T08:11:07.521Z,22.15
2019-02-15T08:13:38.283Z,22.75
2019-02-15T08:16:08.608Z,22.67
2019-02-15T08:18:38.939Z,16.65
2019-02-15T08:21:09.296Z,19.07
2019-02-15T08:23:39.619Z,14.00
2019-02-15T08:26:10.283Z,15.05
2019-02-15T08:28:41.187Z,14.13
2019-02-15T08:31:11.559Z,17.07
2019-02-15T08:33:41.906Z,16.25
2019-02-15T08:36:12.231Z,17.77
2019-02-15T08:38:42.640Z,15.20
2019-02-15T08:41:13.020Z,17.23
2019-02-15T08:43:43.377Z,29.48
2019-02-15T08:46:13.702Z,15.70
2019-02-15T08:48:46.252Z,13.80
2019-02-15T08:51:16.110Z,18.67
2019-02-15T08:53:46.700Z,18.77
2019-02-15T08:56:17.055Z,16.67
2019-02-15T08:58:47.672Z,14.58
2019-02-15T09:01:18.310Z,26.90
2019-02-15T09:03:48.972Z,25.60
2019-02-15T09:06:19.332Z,16.52
2019-02-15T09:08:49.717Z,13.88
2019-02-15T09:11:20.333Z,15.70
2019-02-15T09:13:50.698Z,20.62
2019-02-15T09:16:21.353Z,15.32
2019-02-15T09:18:51.676Z,15.32
2019-02-15T09:21:22.031Z,14.58
2019-02-15T09:23:52.387Z,14.70
2019-02-15T09:26:23.063Z,16.02
2019-02-15T09:28:55.023Z,18.87
2019-02-15T09:31:25.618Z,18.12
2019-02-15T09:33:55.990Z,15.68
2019-02-15T09:36:26.580Z,28.12
2019-02-15T09:38:56.938Z,15.90
2019-02-15T09:41:27.262Z,17.23
2019-02-15T09:43:57.966Z,17.05
2019-02-15T09:46:28.291Z,17.85
2019-02-15T09:48:58.650Z,18.02
2019-02-15T09:51:29.026Z,15.78
2019-02-15T09:53:59.426Z,22.40
2019-02-15T09:56:29.755Z,19.00
2019-02-15T09:59:00.393Z,19.12
2019-02-15T10:01:31.157Z,21.50
2019-02-15T10:04:01.799Z,19.12
2019-02-15T10:06:32.453Z,24.63
2019-02-15T10:09:04.932Z,19.15
2019-02-15T10:11:35.596Z,20.02
2019-02-15T10:14:05.975Z,20.15
2019-02-15T10:16:36.347Z,32.73
2019-02-15T10:19:06.695Z,15.58
2019-02-15T10:21:37.322Z,31.53
2019-02-15T10:24:08.045Z,22.27
2019-02-15T10:26:38.741Z,19.82
2019-02-15T10:29:09.383Z,18.67
2019-02-15T10:31:40.725Z,19.73
2019-02-15T10:34:11.111Z,22.23
2019-02-15T10:36:41.479Z,21.37
2019-02-15T10:39:12.383Z,20.63
2019-02-15T10:41:42.891Z,19.27
2019-02-15T10:44:13.519Z,20.73
2019-02-15T10:46:43.863Z,26.17
2019-02-15T10:49:14.267Z,23.03
2019-02-15T10:51:44.638Z,17.13
2019-02-15T10:54:15.627Z,16.87
2019-02-15T10:56:45.987Z,21.60
2019-02-15T10:59:18.093Z,21.90
2019-02-15T11:01:48.497Z,17.67
2019-02-15T11:04:18.872Z,19.80
2019-02-15T11:06:49.279Z,15.30
2019-02-15T11:09:19.625Z,14.37
2019-02-15T11:11:49.965Z,20.77
2019-02-15T11:14:20.355Z,17.60
2019-02-15T11:16:51.669Z,19.73
2019-02-15T11:19:22.072Z,16.10
2019-02-15T11:21:52.447Z,20.57
2019-02-15T11:24:23.389Z,17.80
2019-02-15T11:26:54.058Z,17.60
2019-02-15T11:29:24.396Z,16.87
2019-02-15T11:31:55.077Z,15.57
2019-02-15T11:34:25.462Z,16.57
2019-02-15T11:36:56.073Z,17.53
2019-02-15T11:39:26.421Z,18.00
2019-02-15T11:41:56.804Z,16.63
2019-02-15T11:44:27.418Z,14.43
2019-02-15T11:46:57.791Z,14.87
2019-02-15T11:49:28.197Z,12.13
2019-02-15T11:51:58.562Z,16.57
2019-02-15T11:54:29.094Z,17.27
2019-02-15T11:56:59.732Z,20.23
2019-02-15T11:59:30.117Z,19.37
2019-02-15T12:02:06.308Z,14.43
2019-02-15T12:04:32.806Z,16.33
2019-02-15T12:07:03.179Z,21.00
2019-02-15T12:09:33.564Z,12.53
2019-02-15T12:12:10.377Z,19.93
2019-02-15T12:14:36.267Z,14.30
2019-02-15T12:17:06.612Z,12.53
2019-02-15T12:19:37.011Z,12.67
2019-02-15T12:22:07.546Z,13.23
2019-02-15T12:24:37.920Z,12.73
2019-02-15T12:27:08.572Z,12.90
2019-02-15T12:29:39.580Z,17.43
2019-02-15T12:32:09.970Z,17.90
2019-02-15T12:34:40.339Z,13.07
2019-02-15T12:37:10.704Z,25.80
2019-02-15T12:39:41.156Z,16.97
2019-02-15T12:42:11.541Z,10.37
2019-02-15T12:44:41.899Z,13.67
2019-02-15T12:47:15.155Z,10.90
2019-02-15T12:49:44.335Z,14.57
2019-02-15T12:52:14.759Z,19.63
2019-02-15T12:54:45.377Z,12.73
2019-02-15T12:57:16.037Z,8.90
2019-02-15T12:59:46.395Z,11.40
2019-02-15T13:02:17.143Z,11.70
2019-02-15T13:04:48.070Z,10.03
2019-02-15T13:07:18.661Z,10.47
2019-02-15T13:09:49.295Z,15.13
2019-02-15T13:12:19.649Z,13.50
2019-02-15T13:14:50.375Z,12.47
2019-02-15T13:17:24.637Z,17.93
2019-02-15T13:19:52.838Z,13.13
2019-02-15T13:22:23.196Z,16.30
2019-02-15T13:24:53.828Z,12.03
2019-02-15T13:27:24.495Z,13.40
2019-02-15T13:29:55.126Z,12.20
2019-02-15T13:32:25.751Z,20.20
2019-02-15T13:34:56.686Z,12.00
2019-02-15T13:37:27.022Z,12.53
2019-02-15T13:39:57.390Z,9.17
2019-02-15T13:42:27.989Z,10.40
2019-02-15T13:44:58.602Z,9.40
2019-02-15T13:47:34.548Z,8.90
2019-02-15T13:50:01.589Z,12.83
2019-02-15T13:52:32.519Z,7.57
2019-02-15T13:55:03.126Z,9.93
2019-02-15T13:57:33.800Z,7.67
2019-02-15T14:00:05.373Z,9.63
2019-02-15T14:02:36.033Z,7.30
2019-02-15T14:05:09.739Z,6.40
2019-02-15T14:07:40.463Z,7.40
2019-02-15T14:10:15.118Z,6.80
2019-02-15T14:12:45.716Z,9.90
2019-02-15T14:15:16.092Z,6.07
2019-02-15T14:17:48.332Z,6.37
2019-02-15T14:20:19.047Z,7.63
2019-02-15T14:22:49.517Z,7.13
2019-02-15T14:25:20.123Z,6.87
2019-02-15T14:27:50.503Z,9.47
2019-02-15T14:30:20.836Z,6.87
2019-02-15T14:32:51.497Z,7.60
2019-02-15T14:35:21.899Z,7.10
2019-02-15T14:37:52.247Z,10.70
2019-02-15T14:40:22.897Z,7.83
2019-02-15T14:42:53.862Z,6.97
2019-02-15T14:45:24.544Z,6.80
2019-02-15T14:47:55.508Z,14.63
2019-02-15T14:50:26.450Z,7.80
2019-02-15T14:52:57.108Z,10.47
2019-02-15T14:55:28.018Z,8.17
2019-02-15T14:57:58.716Z,9.50
2019-02-15T15:00:29.068Z,9.07
2019-02-15T15:02:59.405Z,8.37
2019-02-15T15:05:30.050Z,14.77
2019-02-15T15:08:00.967Z,10.10
2019-02-15T15:10:31.304Z,9.80
2019-02-15T15:13:01.709Z,9.60
2019-02-15T15:15:32.080Z,6.67
2019-02-15T15:18:12.442Z,12.63
2019-02-15T15:20:34.472Z,7.37
2019-02-15T15:23:05.152Z,7.37
2019-02-15T15:25:36.064Z,8.73
2019-02-15T15:28:06.470Z,8.77
2019-02-15T15:30:37.080Z,8.70
2019-02-15T15:33:07.669Z,8.03
2019-02-15T15:35:38.066Z,9.27
2019-02-15T15:38:08.680Z,8.83
2019-02-15T15:40:39.395Z,8.37
2019-02-15T15:43:09.997Z,7.20
2019-02-15T15:45:40.621Z,8.13
2019-02-15T15:48:11.041Z,11.37
2019-02-15T15:50:41.683Z,6.77
2019-02-15T15:53:12.039Z,8.23
2019-02-15T15:55:43.079Z,6.23
2019-02-15T15:58:13.682Z,9.60
2019-02-15T16:00:44.297Z,9.43
2019-02-15T16:03:15.020Z,7.90
2019-02-15T16:05:45.444Z,10.30
2019-02-15T16:08:16.210Z,6.67
2019-02-15T16:10:46.540Z,11.00
2019-02-15T16:13:17.199Z,9.70
2019-02-15T16:15:47.563Z,7.57
2019-02-15T16:18:18.280Z,9.50
2019-02-15T16:20:48.646Z,12.30
2019-02-15T16:23:19.235Z,12.57
2019-02-15T16:25:49.686Z,7.47
2019-02-15T16:28:20.387Z,5.63
2019-02-15T16:30:50.756Z,7.43
2019-02-15T16:33:21.110Z,9.60
2019-02-15T16:35:51.725Z,12.07
2019-02-15T16:38:22.115Z,9.90
2019-02-15T16:40:52.827Z,6.40
2019-02-15T16:43:23.425Z,7.30
2019-02-15T16:45:54.327Z,6.77
2019-02-15T16:48:24.649Z,8.87
2019-02-15T16:50:55.383Z,10.87
2019-02-15T16:53:26.110Z,11.10
2019-02-15T16:55:56.487Z,15.13
2019-02-15T16:58:27.076Z,17.13
2019-02-15T17:00:57.577Z,19.40
2019-02-15T17:03:28.194Z,11.78
2019-02-15T17:05:58.779Z,13.13
2019-02-15T17:08:29.298Z,20.43
2019-02-15T17:10:59.669Z,17.48
2019-02-15T17:13:30.613Z,18.50
2019-02-15T17:16:01.042Z,17.17
2019-02-15T17:18:31.659Z,18.37
2019-02-15T17:21:02.297Z,17.60
2019-02-15T17:23:32.933Z,18.20
2019-02-15T17:26:03.819Z,13.75
2019-02-15T17:28:34.457Z,15.10
2019-02-15T17:31:04.865Z,17.37
2019-02-15T17:33:35.199Z,16.12
2019-02-15T17:36:05.848Z,15.78
2019-02-15T17:38:36.537Z,14.45
2019-02-15T17:41:07.057Z,10.45
2019-02-15T17:43:37.679Z,14.20
2019-02-15T17:46:08.345Z,17.37
2019-02-15T17:48:38.699Z,13.72
2019-02-15T17:51:09.081Z,19.60
2019-02-15T17:53:39.436Z,12.90
2019-02-15T17:56:10.113Z,23.65
2019-02-15T17:58:40.740Z,28.92
2019-02-15T18:01:11.092Z,35.58
2019-02-15T18:03:41.826Z,33.58
2019-02-15T18:06:12.513Z,27.32
2019-02-15T18:08:43.208Z,25.43
2019-02-15T18:11:13.846Z,34.30
2019-02-15T18:13:44.496Z,28.35
2019-02-15T18:16:14.855Z,27.58
2019-02-15T18:18:45.186Z,29.70
2019-02-15T18:21:15.931Z,32.85
2019-02-15T18:23:46.264Z,29.65
2019-02-15T18:26:16.647Z,19.80
2019-02-15T18:28:47.524Z,27.05
2019-02-15T18:31:17.862Z,26.87
2019-02-15T18:33:48.779Z,20.02
2019-02-15T18:36:19.210Z,24.67
2019-02-15T18:38:49.893Z,18.95
2019-02-15T18:41:20.517Z,26.75
2019-02-15T18:43:51.139Z,24.92
2019-02-15T18:46:21.486Z,22.98
2019-02-15T18:48:51.879Z,19.92
2019-02-15T18:51:22.403Z,32.08
2019-02-15T18:53:54.934Z,26.15
2019-02-15T18:56:25.267Z,35.38
2019-02-15T18:58:55.592Z,36.50
2019-02-15T19:01:26.216Z,25.43
2019-02-15T19:03:56.839Z,23.32
2019-02-15T19:06:27.168Z,29.72
2019-02-15T19:08:57.601Z,32.25
2019-02-15T19:11:27.965Z,32.05
2019-02-15T19:13:58.579Z,33.65
2019-02-15T19:16:28.957Z,37.38
2019-02-15T19:18:59.286Z,42.65
2019-02-15T19:21:29.642Z,44.38
2019-02-15T19:23:59.990Z,41.20
2019-02-15T19:26:30.609Z,35.40
2019-02-15T19:29:01.205Z,35.15
2019-02-15T19:31:31.970Z,30.82
2019-02-15T19:34:02.597Z,26.95
2019-02-15T19:36:32.929Z,26.57
2019-02-15T19:39:04.379Z,33.23
2019-02-15T19:41:34.993Z,24.70
2019-02-15T19:44:05.689Z,16.82
2019-02-15T19:46:36.024Z,26.20
2019-02-15T19:49:06.393Z,22.67
2019-02-15T19:51:37.019Z,25.43
2019-02-15T19:54:07.406Z,26.93
2019-02-15T19:56:38.059Z,14.78
2019-02-15T19:59:08.706Z,17.70
2019-02-15T20:01:39.082Z,14.43
2019-02-15T20:04:09.454Z,14.43
2019-02-15T20:06:40.067Z,19.30
2019-02-15T20:09:10.819Z,22.87
2019-02-15T20:11:41.216Z,24.40
2019-02-15T20:14:11.843Z,16.30
2019-02-15T20:16:42.721Z,22.30
2019-02-15T20:19:13.421Z,24.32
2019-02-15T20:21:44.015Z,23.42
2019-02-15T20:24:14.346Z,29.70
2019-02-15T20:26:44.724Z,45.67
2019-02-15T20:29:15.414Z,50.48
2019-02-15T20:31:46.031Z,41.53
2019-02-15T20:34:16.679Z,37.48
2019-02-15T20:36:47.050Z,40.45
2019-02-15T20:39:17.665Z,35.28
2019-02-15T20:41:48.076Z,39.05
2019-02-15T20:44:18.427Z,37.35
2019-02-15T20:46:48.759Z,40.58
2019-02-15T20:49:19.146Z,41.20
2019-02-15T20:51:49.760Z,28.83
2019-02-15T20:54:20.122Z,25.95
2019-02-15T20:56:50.502Z,25.00
2019-02-15T20:59:21.190Z,24.95
2019-02-15T21:01:51.538Z,21.65
2019-02-15T21:04:22.160Z,32.23
2019-02-15T21:06:52.747Z,28.67
2019-02-15T21:09:23.392Z,34.67
2019-02-15T21:11:53.722Z,31.62
2019-02-15T21:14:24.404Z,32.05
2019-02-15T21:16:55.063Z,44.15
2019-02-15T21:19:25.679Z,32.08
2019-02-15T21:21:56.053Z,38.80
2019-02-15T21:24:26.451Z,38.25
2019-02-15T21:26:56.813Z,49.75
2019-02-15T21:29:27.431Z,44.30
2019-02-15T21:31:58.127Z,44.63
2019-02-15T21:34:29.114Z,45.08
2019-02-15T21:36:59.460Z,47.38
2019-02-15T21:39:30.108Z,49.30
2019-02-15T21:42:01.033Z,63.65
2019-02-15T21:44:31.387Z,54.23
2019-02-15T21:47:02.060Z,50.73
2019-02-15T21:49:32.679Z,52.43
2019-02-15T21:52:03.412Z,58.75
2019-02-15T21:54:33.781Z,53.85
2019-02-15T21:57:04.404Z,49.60
2019-02-15T21:59:34.773Z,48.52
2019-02-15T22:02:05.151Z,50.20
2019-02-15T22:04:35.510Z,49.15
2019-02-15T22:07:05.847Z,45.10
2019-02-15T22:09:36.202Z,52.83
2019-02-15T22:12:06.567Z,45.25
2019-02-15T22:14:37.240Z,48.63
2019-02-15T22:17:07.862Z,58.63
2019-02-15T22:19:38.535Z,56.13
2019-02-15T22:22:08.890Z,48.52
2019-02-15T22:24:39.565Z,52.10
2019-02-15T22:27:10.158Z,47.50
2019-02-15T22:29:40.776Z,48.73
2019-02-15T22:32:11.491Z,66.45
2019-02-15T22:34:42.461Z,46.70
2019-02-15T22:37:12.842Z,42.20
2019-02-15T22:39:43.479Z,52.98
2019-02-15T22:42:13.811Z,47.80
2019-02-15T22:44:44.240Z,48.35
2019-02-15T22:47:14.623Z,55.17
2019-02-15T22:49:44.955Z,44.42
2019-02-15T22:52:15.326Z,50.25
2019-02-15T22:54:45.716Z,52.05
2019-02-15T22:57:16.067Z,49.55
2019-02-15T22:59:46.455Z,53.23
2019-02-15T23:02:16.865Z,48.33
2019-02-15T23:04:47.231Z,45.95
2019-02-15T23:07:18.459Z,48.68
2019-02-15T23:09:49.082Z,50.50
2019-02-15T23:12:19.766Z,50.15
2019-02-15T23:14:50.395Z,49.83
2019-02-15T23:17:21.145Z,46.65
2019-02-15T23:19:51.773Z,45.08
2019-02-15T23:22:22.406Z,48.17
2019-02-15T23:24:53.088Z,43.08
2019-02-15T23:27:23.446Z,37.95
2019-02-15T23:29:54.100Z,39.27
2019-02-15T23:32:24.462Z,44.80
2019-02-15T23:34:55.264Z,42.85
2019-02-15T23:37:25.889Z,42.53
2019-02-15T23:39:56.229Z,38.63
2019-02-15T23:42:26.585Z,49.18
2019-02-15T23:44:57.218Z,40.70
2019-02-15T23:47:27.916Z,37.95
2019-02-15T23:49:58.268Z,41.70
2019-02-15T23:52:28.904Z,34.38
2019-02-15T23:54:59.276Z,46.68
2019-02-15T23:57:29.672Z,39.63
